sensor_id;sensor_type;location;lat;lon;timestamp;P1;durP1;ratioP1;P2;durP2;ratioP2
77524;SDS011;66638;50.050;21.124;2023-02-28T00:00:13;11.00;;;6.10;;
77524;SDS011;66638;50.050;21.124;2023-02-28T00:03:17;14.60;;;6.50;;
77524;SDS011;66638;50.050;21.124;2023-02-28T00:06:05;13.40;;;6.20;;
77524;SDS011;66638;50.050;21.124;2023-02-28T00:08:54;15.30;;;6.70;;
77524;SDS011;66638;50.050;21.124;2023-02-28T00:11:41;14.60;;;6.70;;
77524;SDS011;66638;50.050;21.124;2023-02-28T00:14:30;13.30;;;6.40;;
77524;SDS011;66638;50.050;21.124;2023-02-28T00:17:17;14.20;;;6.90;;
77524;SDS011;66638;50.050;21.124;2023-02-28T00:20:07;16.90;;;7.70;;
77524;SDS011;66638;50.050;21.124;2023-02-28T00:22:58;20.60;;;10.80;;
77524;SDS011;66638;50.050;21.124;2023-02-28T00:25:46;17.50;;;9.60;;
77524;SDS011;66638;50.050;21.124;2023-02-28T00:28:33;13.00;;;7.40;;
77524;SDS011;66638;50.050;21.124;2023-02-28T00:31:20;14.30;;;7.40;;
77524;SDS011;66638;50.050;21.124;2023-02-28T00:34:08;14.50;;;7.30;;
77524;SDS011;66638;50.050;21.124;2023-02-28T00:39:43;13.20;;;6.40;;
77524;SDS011;66638;50.050;21.124;2023-02-28T00:42:30;13.10;;;7.10;;
77524;SDS011;66638;50.050;21.124;2023-02-28T00:45:18;15.70;;;7.30;;
77524;SDS011;66638;50.050;21.124;2023-02-28T00:48:05;12.00;;;7.80;;
77524;SDS011;66638;50.050;21.124;2023-02-28T00:50:53;15.30;;;7.90;;
77524;SDS011;66638;50.050;21.124;2023-02-28T00:53:40;16.40;;;7.70;;
77524;SDS011;66638;50.050;21.124;2023-02-28T00:56:27;16.40;;;8.10;;
77524;SDS011;66638;50.050;21.124;2023-02-28T00:59:15;18.10;;;9.20;;
77524;SDS011;66638;50.050;21.124;2023-02-28T01:02:03;18.00;;;9.80;;
77524;SDS011;66638;50.050;21.124;2023-02-28T01:04:50;16.60;;;9.70;;
77524;SDS011;66638;50.050;21.124;2023-02-28T01:07:37;15.60;;;8.80;;
77524;SDS011;66638;50.050;21.124;2023-02-28T01:10:25;16.10;;;7.70;;
77524;SDS011;66638;50.050;21.124;2023-02-28T01:13:13;13.40;;;6.80;;
77524;SDS011;66638;50.050;21.124;2023-02-28T01:16:00;16.90;;;8.40;;
77524;SDS011;66638;50.050;21.124;2023-02-28T01:18:47;16.20;;;8.10;;
77524;SDS011;66638;50.050;21.124;2023-02-28T01:21:34;16.10;;;9.30;;
77524;SDS011;66638;50.050;21.124;2023-02-28T01:24:22;17.20;;;8.00;;
77524;SDS011;66638;50.050;21.124;2023-02-28T01:27:09;13.80;;;8.00;;
77524;SDS011;66638;50.050;21.124;2023-02-28T01:29:57;16.20;;;8.40;;
77524;SDS011;66638;50.050;21.124;2023-02-28T01:32:44;18.40;;;9.50;;
77524;SDS011;66638;50.050;21.124;2023-02-28T01:35:32;30.00;;;13.10;;
77524;SDS011;66638;50.050;21.124;2023-02-28T01:38:21;21.00;;;12.30;;
77524;SDS011;66638;50.050;21.124;2023-02-28T01:41:08;19.90;;;10.30;;
77524;SDS011;66638;50.050;21.124;2023-02-28T01:47:32;23.60;;;10.50;;
77524;SDS011;66638;50.050;21.124;2023-02-28T01:50:23;19.70;;;9.80;;
77524;SDS011;66638;50.050;21.124;2023-02-28T01:53:14;20.70;;;9.80;;
77524;SDS011;66638;50.050;21.124;2023-02-28T01:56:05;20.20;;;9.80;;
77524;SDS011;66638;50.050;21.124;2023-02-28T01:58:53;21.10;;;9.60;;
77524;SDS011;66638;50.050;21.124;2023-02-28T02:01:43;20.50;;;9.70;;
77524;SDS011;66638;50.050;21.124;2023-02-28T02:04:36;22.50;;;10.60;;
77524;SDS011;66638;50.050;21.124;2023-02-28T02:07:25;21.30;;;9.40;;
77524;SDS011;66638;50.050;21.124;2023-02-28T02:10:20;29.30;;;10.70;;
77524;SDS011;66638;50.050;21.124;2023-02-28T02:20:04;24.50;;;8.50;;
77524;SDS011;66638;50.050;21.124;2023-02-28T02:23:07;18.80;;;8.90;;
77524;SDS011;66638;50.050;21.124;2023-02-28T02:29:41;15.00;;;8.20;;
77524;SDS011;66638;50.050;21.124;2023-02-28T02:36:25;17.60;;;9.00;;
77524;SDS011;66638;50.050;21.124;2023-02-28T02:39:21;15.10;;;8.40;;
77524;SDS011;66638;50.050;21.124;2023-02-28T02:42:21;21.00;;;10.10;;
77524;SDS011;66638;50.050;21.124;2023-02-28T02:45:17;29.00;;;14.00;;
77524;SDS011;66638;50.050;21.124;2023-02-28T02:48:15;23.20;;;13.70;;
77524;SDS011;66638;50.050;21.124;2023-02-28T02:51:06;20.00;;;10.10;;
77524;SDS011;66638;50.050;21.124;2023-02-28T02:54:02;15.70;;;9.70;;
77524;SDS011;66638;50.050;21.124;2023-02-28T02:57:04;20.60;;;10.20;;
77524;SDS011;66638;50.050;21.124;2023-02-28T02:59:55;18.40;;;9.30;;
77524;SDS011;66638;50.050;21.124;2023-02-28T03:02:43;18.90;;;9.50;;
77524;SDS011;66638;50.050;21.124;2023-02-28T03:08:39;21.10;;;10.90;;
77524;SDS011;66638;50.050;21.124;2023-02-28T03:11:26;18.30;;;9.40;;
77524;SDS011;66638;50.050;21.124;2023-02-28T03:14:22;18.50;;;8.90;;
77524;SDS011;66638;50.050;21.124;2023-02-28T03:17:26;18.00;;;9.00;;
77524;SDS011;66638;50.050;21.124;2023-02-28T03:20:31;18.70;;;9.10;;
77524;SDS011;66638;50.050;21.124;2023-02-28T03:23:38;23.00;;;9.70;;
77524;SDS011;66638;50.050;21.124;2023-02-28T03:26:30;19.00;;;9.50;;
77524;SDS011;66638;50.050;21.124;2023-02-28T03:29:21;17.50;;;9.60;;
77524;SDS011;66638;50.050;21.124;2023-02-28T03:32:23;18.80;;;9.00;;
77524;SDS011;66638;50.050;21.124;2023-02-28T03:35:18;24.60;;;11.00;;
77524;SDS011;66638;50.050;21.124;2023-02-28T03:41:37;18.60;;;8.50;;
77524;SDS011;66638;50.050;21.124;2023-02-28T03:44:33;21.30;;;9.40;;
77524;SDS011;66638;50.050;21.124;2023-02-28T03:47:36;25.10;;;12.60;;
77524;SDS011;66638;50.050;21.124;2023-02-28T03:50:27;38.90;;;15.00;;
77524;SDS011;66638;50.050;21.124;2023-02-28T03:53:21;32.80;;;15.00;;
77524;SDS011;66638;50.050;21.124;2023-02-28T03:59:21;21.20;;;9.80;;
77524;SDS011;66638;50.050;21.124;2023-02-28T04:02:15;22.10;;;10.50;;
77524;SDS011;66638;50.050;21.124;2023-02-28T04:05:03;17.80;;;10.40;;
77524;SDS011;66638;50.050;21.124;2023-02-28T04:07:51;22.00;;;10.40;;
77524;SDS011;66638;50.050;21.124;2023-02-28T04:13:27;15.00;;;8.30;;
77524;SDS011;66638;50.050;21.124;2023-02-28T04:16:14;15.80;;;8.50;;
77524;SDS011;66638;50.050;21.124;2023-02-28T04:19:03;21.00;;;9.60;;
77524;SDS011;66638;50.050;21.124;2023-02-28T04:21:52;17.70;;;10.20;;
77524;SDS011;66638;50.050;21.124;2023-02-28T04:24:40;20.30;;;10.60;;
77524;SDS011;66638;50.050;21.124;2023-02-28T04:27:28;20.30;;;9.60;;
77524;SDS011;66638;50.050;21.124;2023-02-28T04:30:16;18.00;;;9.20;;
77524;SDS011;66638;50.050;21.124;2023-02-28T04:33:03;21.20;;;10.10;;
77524;SDS011;66638;50.050;21.124;2023-02-28T04:39:00;20.90;;;10.00;;
77524;SDS011;66638;50.050;21.124;2023-02-28T04:44:35;15.40;;;8.30;;
77524;SDS011;66638;50.050;21.124;2023-02-28T04:47:22;18.30;;;11.10;;
77524;SDS011;66638;50.050;21.124;2023-02-28T04:50:09;22.90;;;9.50;;
77524;SDS011;66638;50.050;21.124;2023-02-28T04:52:57;27.20;;;13.60;;
77524;SDS011;66638;50.050;21.124;2023-02-28T04:55:44;35.70;;;15.50;;
77524;SDS011;66638;50.050;21.124;2023-02-28T04:58:33;37.00;;;16.80;;
77524;SDS011;66638;50.050;21.124;2023-02-28T05:01:22;38.30;;;17.60;;
77524;SDS011;66638;50.050;21.124;2023-02-28T05:04:11;35.60;;;16.20;;
77524;SDS011;66638;50.050;21.124;2023-02-28T05:06:58;32.50;;;13.90;;
77524;SDS011;66638;50.050;21.124;2023-02-28T05:09:46;26.50;;;13.90;;
77524;SDS011;66638;50.050;21.124;2023-02-28T05:12:33;25.90;;;13.10;;
77524;SDS011;66638;50.050;21.124;2023-02-28T05:15:20;23.50;;;12.40;;
77524;SDS011;66638;50.050;21.124;2023-02-28T05:18:08;22.30;;;11.10;;
77524;SDS011;66638;50.050;21.124;2023-02-28T05:20:55;23.80;;;11.30;;
77524;SDS011;66638;50.050;21.124;2023-02-28T05:23:42;20.10;;;10.60;;
77524;SDS011;66638;50.050;21.124;2023-02-28T05:26:30;18.90;;;10.30;;
77524;SDS011;66638;50.050;21.124;2023-02-28T05:29:18;20.80;;;10.60;;
77524;SDS011;66638;50.050;21.124;2023-02-28T05:32:05;17.70;;;9.80;;
77524;SDS011;66638;50.050;21.124;2023-02-28T05:34:53;22.90;;;10.50;;
77524;SDS011;66638;50.050;21.124;2023-02-28T05:37:40;18.40;;;10.10;;
77524;SDS011;66638;50.050;21.124;2023-02-28T05:40:28;21.00;;;11.40;;
77524;SDS011;66638;50.050;21.124;2023-02-28T05:43:15;23.40;;;10.90;;
77524;SDS011;66638;50.050;21.124;2023-02-28T05:46:03;25.10;;;11.40;;
77524;SDS011;66638;50.050;21.124;2023-02-28T05:48:52;20.20;;;11.40;;
77524;SDS011;66638;50.050;21.124;2023-02-28T05:51:40;23.90;;;13.90;;
77524;SDS011;66638;50.050;21.124;2023-02-28T05:54:27;30.40;;;16.60;;
77524;SDS011;66638;50.050;21.124;2023-02-28T05:57:15;30.60;;;14.50;;
77524;SDS011;66638;50.050;21.124;2023-02-28T06:00:02;27.60;;;13.00;;
77524;SDS011;66638;50.050;21.124;2023-02-28T06:02:58;23.60;;;13.50;;
77524;SDS011;66638;50.050;21.124;2023-02-28T06:05:48;28.20;;;15.00;;
77524;SDS011;66638;50.050;21.124;2023-02-28T06:08:37;32.20;;;16.10;;
77524;SDS011;66638;50.050;21.124;2023-02-28T06:11:24;30.20;;;15.70;;
77524;SDS011;66638;50.050;21.124;2023-02-28T06:14:15;27.60;;;17.10;;
77524;SDS011;66638;50.050;21.124;2023-02-28T06:17:03;27.70;;;19.40;;
77524;SDS011;66638;50.050;21.124;2023-02-28T06:19:51;30.20;;;20.90;;
77524;SDS011;66638;50.050;21.124;2023-02-28T06:22:39;32.10;;;18.60;;
77524;SDS011;66638;50.050;21.124;2023-02-28T06:25:27;27.40;;;17.80;;
77524;SDS011;66638;50.050;21.124;2023-02-28T06:28:14;37.00;;;22.10;;
77524;SDS011;66638;50.050;21.124;2023-02-28T06:31:05;34.90;;;20.70;;
77524;SDS011;66638;50.050;21.124;2023-02-28T06:33:54;28.40;;;18.80;;
77524;SDS011;66638;50.050;21.124;2023-02-28T06:36:42;22.80;;;15.50;;
77524;SDS011;66638;50.050;21.124;2023-02-28T06:39:30;23.30;;;16.20;;
77524;SDS011;66638;50.050;21.124;2023-02-28T06:42:23;21.60;;;13.00;;
77524;SDS011;66638;50.050;21.124;2023-02-28T06:45:15;19.90;;;12.70;;
77524;SDS011;66638;50.050;21.124;2023-02-28T06:48:02;19.40;;;11.50;;
77524;SDS011;66638;50.050;21.124;2023-02-28T06:50:50;18.10;;;11.20;;
77524;SDS011;66638;50.050;21.124;2023-02-28T06:53:37;16.20;;;10.30;;
77524;SDS011;66638;50.050;21.124;2023-02-28T06:56:24;16.60;;;10.70;;
77524;SDS011;66638;50.050;21.124;2023-02-28T06:59:11;13.70;;;9.90;;
77524;SDS011;66638;50.050;21.124;2023-02-28T07:01:59;16.50;;;9.70;;
77524;SDS011;66638;50.050;21.124;2023-02-28T07:04:46;16.20;;;10.30;;
77524;SDS011;66638;50.050;21.124;2023-02-28T07:07:34;15.10;;;9.50;;
77524;SDS011;66638;50.050;21.124;2023-02-28T07:10:22;13.60;;;9.10;;
77524;SDS011;66638;50.050;21.124;2023-02-28T07:13:10;12.60;;;7.70;;
77524;SDS011;66638;50.050;21.124;2023-02-28T07:16:04;11.70;;;7.60;;
77524;SDS011;66638;50.050;21.124;2023-02-28T07:18:54;11.80;;;8.10;;
77524;SDS011;66638;50.050;21.124;2023-02-28T07:21:41;10.00;;;7.20;;
77524;SDS011;66638;50.050;21.124;2023-02-28T07:24:28;12.80;;;9.00;;
77524;SDS011;66638;50.050;21.124;2023-02-28T07:27:17;10.10;;;7.40;;
77524;SDS011;66638;50.050;21.124;2023-02-28T07:30:10;8.90;;;7.10;;
77524;SDS011;66638;50.050;21.124;2023-02-28T07:32:58;8.60;;;6.90;;
77524;SDS011;66638;50.050;21.124;2023-02-28T07:35:45;9.80;;;6.90;;
77524;SDS011;66638;50.050;21.124;2023-02-28T07:38:34;11.70;;;7.60;;
77524;SDS011;66638;50.050;21.124;2023-02-28T07:41:22;11.70;;;7.70;;
77524;SDS011;66638;50.050;21.124;2023-02-28T07:44:12;9.90;;;6.90;;
77524;SDS011;66638;50.050;21.124;2023-02-28T07:46:59;10.40;;;7.40;;
77524;SDS011;66638;50.050;21.124;2023-02-28T07:49:46;9.30;;;6.80;;
77524;SDS011;66638;50.050;21.124;2023-02-28T07:52:33;9.50;;;6.80;;
77524;SDS011;66638;50.050;21.124;2023-02-28T07:55:20;8.70;;;7.10;;
77524;SDS011;66638;50.050;21.124;2023-02-28T07:58:08;8.10;;;6.50;;
77524;SDS011;66638;50.050;21.124;2023-02-28T08:00:55;7.70;;;6.30;;
77524;SDS011;66638;50.050;21.124;2023-02-28T08:03:43;8.00;;;6.30;;
77524;SDS011;66638;50.050;21.124;2023-02-28T08:06:30;7.60;;;6.00;;
77524;SDS011;66638;50.050;21.124;2023-02-28T08:09:17;7.80;;;6.30;;
77524;SDS011;66638;50.050;21.124;2023-02-28T08:12:04;9.10;;;6.80;;
77524;SDS011;66638;50.050;21.124;2023-02-28T08:14:51;10.20;;;7.40;;
77524;SDS011;66638;50.050;21.124;2023-02-28T08:17:39;8.00;;;6.20;;
77524;SDS011;66638;50.050;21.124;2023-02-28T08:20:26;6.70;;;5.60;;
77524;SDS011;66638;50.050;21.124;2023-02-28T08:23:14;9.10;;;7.70;;
77524;SDS011;66638;50.050;21.124;2023-02-28T08:26:01;7.90;;;6.20;;
77524;SDS011;66638;50.050;21.124;2023-02-28T08:28:49;6.90;;;5.50;;
77524;SDS011;66638;50.050;21.124;2023-02-28T08:31:37;6.90;;;5.80;;
77524;SDS011;66638;50.050;21.124;2023-02-28T08:34:24;7.50;;;5.80;;
77524;SDS011;66638;50.050;21.124;2023-02-28T08:37:11;7.60;;;6.50;;
77524;SDS011;66638;50.050;21.124;2023-02-28T08:39:59;7.80;;;6.30;;
77524;SDS011;66638;50.050;21.124;2023-02-28T08:42:46;7.90;;;6.10;;
77524;SDS011;66638;50.050;21.124;2023-02-28T08:45:34;7.00;;;6.30;;
77524;SDS011;66638;50.050;21.124;2023-02-28T08:48:22;6.90;;;5.30;;
77524;SDS011;66638;50.050;21.124;2023-02-28T08:51:12;8.70;;;6.50;;
77524;SDS011;66638;50.050;21.124;2023-02-28T08:54:01;9.10;;;6.70;;
77524;SDS011;66638;50.050;21.124;2023-02-28T08:56:48;7.20;;;6.00;;
77524;SDS011;66638;50.050;21.124;2023-02-28T08:59:35;9.00;;;6.50;;
77524;SDS011;66638;50.050;21.124;2023-02-28T09:02:23;7.10;;;5.90;;
77524;SDS011;66638;50.050;21.124;2023-02-28T09:05:10;6.60;;;5.90;;
77524;SDS011;66638;50.050;21.124;2023-02-28T09:07:57;7.90;;;6.30;;
77524;SDS011;66638;50.050;21.124;2023-02-28T09:10:44;7.10;;;6.40;;
77524;SDS011;66638;50.050;21.124;2023-02-28T09:13:32;8.70;;;6.50;;
77524;SDS011;66638;50.050;21.124;2023-02-28T09:16:19;7.70;;;6.30;;
77524;SDS011;66638;50.050;21.124;2023-02-28T09:19:10;8.30;;;6.00;;
77524;SDS011;66638;50.050;21.124;2023-02-28T09:21:58;8.40;;;6.90;;
77524;SDS011;66638;50.050;21.124;2023-02-28T09:24:45;7.90;;;6.80;;
77524;SDS011;66638;50.050;21.124;2023-02-28T09:27:33;9.30;;;7.20;;
77524;SDS011;66638;50.050;21.124;2023-02-28T09:30:20;9.00;;;7.80;;
77524;SDS011;66638;50.050;21.124;2023-02-28T09:33:08;8.70;;;7.30;;
77524;SDS011;66638;50.050;21.124;2023-02-28T09:35:59;9.50;;;8.60;;
77524;SDS011;66638;50.050;21.124;2023-02-28T09:38:48;12.10;;;10.40;;
77524;SDS011;66638;50.050;21.124;2023-02-28T09:41:42;8.90;;;7.30;;
77524;SDS011;66638;50.050;21.124;2023-02-28T09:44:38;12.10;;;10.90;;
77524;SDS011;66638;50.050;21.124;2023-02-28T09:53:22;10.20;;;7.90;;
77524;SDS011;66638;50.050;21.124;2023-02-28T09:56:15;10.00;;;8.20;;
77524;SDS011;66638;50.050;21.124;2023-02-28T10:05:41;10.20;;;8.30;;
77524;SDS011;66638;50.050;21.124;2023-02-28T10:08:36;10.80;;;8.60;;
77524;SDS011;66638;50.050;21.124;2023-02-28T10:11:32;12.70;;;10.60;;
77524;SDS011;66638;50.050;21.124;2023-02-28T10:14:27;9.50;;;7.80;;
77524;SDS011;66638;50.050;21.124;2023-02-28T10:17:18;9.90;;;8.30;;
77524;SDS011;66638;50.050;21.124;2023-02-28T10:20:12;10.40;;;8.50;;
77524;SDS011;66638;50.050;21.124;2023-02-28T10:23:12;9.50;;;8.20;;
77524;SDS011;66638;50.050;21.124;2023-02-28T10:26:12;11.80;;;8.80;;
77524;SDS011;66638;50.050;21.124;2023-02-28T10:29:02;9.10;;;8.10;;
77524;SDS011;66638;50.050;21.124;2023-02-28T10:31:50;9.50;;;7.40;;
77524;SDS011;66638;50.050;21.124;2023-02-28T10:34:37;9.90;;;8.50;;
77524;SDS011;66638;50.050;21.124;2023-02-28T10:37:24;8.90;;;8.00;;
77524;SDS011;66638;50.050;21.124;2023-02-28T10:40:26;10.70;;;8.00;;
77524;SDS011;66638;50.050;21.124;2023-02-28T10:43:19;9.00;;;7.70;;
77524;SDS011;66638;50.050;21.124;2023-02-28T10:46:16;13.70;;;10.00;;
77524;SDS011;66638;50.050;21.124;2023-02-28T10:49:17;9.90;;;8.90;;
77524;SDS011;66638;50.050;21.124;2023-02-28T10:52:08;10.10;;;7.80;;
77524;SDS011;66638;50.050;21.124;2023-02-28T10:55:13;9.40;;;8.20;;
77524;SDS011;66638;50.050;21.124;2023-02-28T10:58:21;9.40;;;7.40;;
77524;SDS011;66638;50.050;21.124;2023-02-28T11:01:18;9.20;;;8.00;;
77524;SDS011;66638;50.050;21.124;2023-02-28T11:07:20;8.90;;;8.00;;
77524;SDS011;66638;50.050;21.124;2023-02-28T11:10:16;8.60;;;7.70;;
77524;SDS011;66638;50.050;21.124;2023-02-28T11:13:12;9.30;;;8.40;;
77524;SDS011;66638;50.050;21.124;2023-02-28T11:16:05;8.10;;;7.30;;
77524;SDS011;66638;50.050;21.124;2023-02-28T11:18:55;10.40;;;9.20;;
77524;SDS011;66638;50.050;21.124;2023-02-28T11:21:45;12.50;;;9.20;;
77524;SDS011;66638;50.050;21.124;2023-02-28T11:24:41;10.10;;;8.20;;
77524;SDS011;66638;50.050;21.124;2023-02-28T11:27:47;10.40;;;8.10;;
77524;SDS011;66638;50.050;21.124;2023-02-28T11:30:40;10.40;;;9.00;;
77524;SDS011;66638;50.050;21.124;2023-02-28T11:33:29;10.40;;;8.10;;
77524;SDS011;66638;50.050;21.124;2023-02-28T11:36:19;13.10;;;9.30;;
77524;SDS011;66638;50.050;21.124;2023-02-28T11:39:11;12.10;;;9.90;;
77524;SDS011;66638;50.050;21.124;2023-02-28T11:42:04;10.90;;;8.60;;
77524;SDS011;66638;50.050;21.124;2023-02-28T11:45:24;10.90;;;8.60;;
77524;SDS011;66638;50.050;21.124;2023-02-28T11:48:31;12.00;;;9.10;;
77524;SDS011;66638;50.050;21.124;2023-02-28T11:51:45;11.70;;;9.80;;
77524;SDS011;66638;50.050;21.124;2023-02-28T11:54:42;11.40;;;10.10;;
77524;SDS011;66638;50.050;21.124;2023-02-28T11:57:53;11.80;;;8.90;;
77524;SDS011;66638;50.050;21.124;2023-02-28T12:01:14;11.50;;;9.40;;
77524;SDS011;66638;50.050;21.124;2023-02-28T12:04:33;13.20;;;9.50;;
77524;SDS011;66638;50.050;21.124;2023-02-28T12:17:18;8.90;;;8.00;;
77524;SDS011;66638;50.050;21.124;2023-02-28T12:26:48;9.60;;;8.60;;
77524;SDS011;66638;50.050;21.124;2023-02-28T12:29:43;9.60;;;7.80;;
77524;SDS011;66638;50.050;21.124;2023-02-28T12:32:36;9.70;;;7.60;;
77524;SDS011;66638;50.050;21.124;2023-02-28T12:35:33;9.20;;;8.10;;
77524;SDS011;66638;50.050;21.124;2023-02-28T12:38:26;9.20;;;8.00;;
77524;SDS011;66638;50.050;21.124;2023-02-28T12:41:16;8.90;;;7.00;;
77524;SDS011;66638;50.050;21.124;2023-02-28T12:44:30;9.20;;;8.10;;
77524;SDS011;66638;50.050;21.124;2023-02-28T12:47:22;9.40;;;8.30;;
77524;SDS011;66638;50.050;21.124;2023-02-28T12:50:10;11.50;;;9.20;;
77524;SDS011;66638;50.050;21.124;2023-02-28T12:59:38;16.60;;;12.30;;
77524;SDS011;66638;50.050;21.124;2023-02-28T13:09:12;10.60;;;8.70;;
77524;SDS011;66638;50.050;21.124;2023-02-28T13:12:02;9.30;;;7.60;;
77524;SDS011;66638;50.050;21.124;2023-02-28T13:15:15;8.90;;;7.50;;
77524;SDS011;66638;50.050;21.124;2023-02-28T13:18:20;8.50;;;6.90;;
77524;SDS011;66638;50.050;21.124;2023-02-28T13:21:23;10.90;;;7.50;;
77524;SDS011;66638;50.050;21.124;2023-02-28T13:27:33;10.50;;;7.50;;
77524;SDS011;66638;50.050;21.124;2023-02-28T13:40:30;9.10;;;6.50;;
77524;SDS011;66638;50.050;21.124;2023-02-28T13:43:24;12.40;;;8.30;;
77524;SDS011;66638;50.050;21.124;2023-02-28T13:53:28;13.00;;;6.30;;
77524;SDS011;66638;50.050;21.124;2023-02-28T13:56:30;11.90;;;7.30;;
77524;SDS011;66638;50.050;21.124;2023-02-28T14:15:47;9.90;;;6.50;;
77524;SDS011;66638;50.050;21.124;2023-02-28T14:18:37;10.20;;;6.40;;
77524;SDS011;66638;50.050;21.124;2023-02-28T14:21:32;11.50;;;7.10;;
77524;SDS011;66638;50.050;21.124;2023-02-28T14:31:08;10.50;;;6.60;;
77524;SDS011;66638;50.050;21.124;2023-02-28T14:34:12;9.00;;;6.10;;
77524;SDS011;66638;50.050;21.124;2023-02-28T14:37:26;10.10;;;7.40;;
77524;SDS011;66638;50.050;21.124;2023-02-28T14:40:30;10.30;;;6.90;;
77524;SDS011;66638;50.050;21.124;2023-02-28T14:43:21;9.40;;;6.30;;
77524;SDS011;66638;50.050;21.124;2023-02-28T14:46:10;12.90;;;8.90;;
77524;SDS011;66638;50.050;21.124;2023-02-28T14:48:59;14.60;;;9.40;;
77524;SDS011;66638;50.050;21.124;2023-02-28T14:51:48;17.00;;;10.00;;
77524;SDS011;66638;50.050;21.124;2023-02-28T14:54:37;11.80;;;7.70;;
77524;SDS011;66638;50.050;21.124;2023-02-28T14:57:29;12.70;;;7.40;;
77524;SDS011;66638;50.050;21.124;2023-02-28T15:03:18;11.50;;;7.50;;
77524;SDS011;66638;50.050;21.124;2023-02-28T15:06:20;10.40;;;6.30;;
77524;SDS011;66638;50.050;21.124;2023-02-28T15:11:56;11.60;;;7.50;;
77524;SDS011;66638;50.050;21.124;2023-02-28T15:14:44;9.00;;;6.40;;
77524;SDS011;66638;50.050;21.124;2023-02-28T15:17:31;10.20;;;6.50;;
77524;SDS011;66638;50.050;21.124;2023-02-28T15:20:19;11.00;;;6.40;;
77524;SDS011;66638;50.050;21.124;2023-02-28T15:23:06;10.80;;;6.80;;
77524;SDS011;66638;50.050;21.124;2023-02-28T15:25:53;10.00;;;6.70;;
77524;SDS011;66638;50.050;21.124;2023-02-28T15:28:41;8.70;;;5.50;;
77524;SDS011;66638;50.050;21.124;2023-02-28T15:31:32;8.00;;;6.00;;
77524;SDS011;66638;50.050;21.124;2023-02-28T15:34:26;10.60;;;6.30;;
77524;SDS011;66638;50.050;21.124;2023-02-28T15:37:45;10.20;;;6.50;;
77524;SDS011;66638;50.050;21.124;2023-02-28T15:40:38;10.60;;;7.10;;
77524;SDS011;66638;50.050;21.124;2023-02-28T15:43:30;9.80;;;6.40;;
77524;SDS011;66638;50.050;21.124;2023-02-28T15:46:18;14.50;;;7.40;;
77524;SDS011;66638;50.050;21.124;2023-02-28T15:49:12;14.20;;;7.90;;
77524;SDS011;66638;50.050;21.124;2023-02-28T15:52:04;16.90;;;8.50;;
77524;SDS011;66638;50.050;21.124;2023-02-28T15:54:52;14.00;;;8.40;;
77524;SDS011;66638;50.050;21.124;2023-02-28T16:00:28;13.50;;;8.20;;
77524;SDS011;66638;50.050;21.124;2023-02-28T16:03:22;15.70;;;9.80;;
77524;SDS011;66638;50.050;21.124;2023-02-28T16:09:26;13.90;;;8.80;;
77524;SDS011;66638;50.050;21.124;2023-02-28T16:12:18;12.70;;;7.60;;
77524;SDS011;66638;50.050;21.124;2023-02-28T16:15:20;11.10;;;7.40;;
77524;SDS011;66638;50.050;21.124;2023-02-28T16:18:12;12.10;;;7.80;;
77524;SDS011;66638;50.050;21.124;2023-02-28T16:21:00;9.70;;;6.70;;
77524;SDS011;66638;50.050;21.124;2023-02-28T16:26:35;11.00;;;6.50;;
77524;SDS011;66638;50.050;21.124;2023-02-28T16:29:26;11.80;;;6.90;;
77524;SDS011;66638;50.050;21.124;2023-02-28T16:32:18;14.40;;;7.40;;
77524;SDS011;66638;50.050;21.124;2023-02-28T16:37:56;13.40;;;6.80;;
77524;SDS011;66638;50.050;21.124;2023-02-28T16:40:44;18.10;;;8.70;;
77524;SDS011;66638;50.050;21.124;2023-02-28T16:43:32;15.60;;;7.90;;
77524;SDS011;66638;50.050;21.124;2023-02-28T16:46:19;25.30;;;12.00;;
77524;SDS011;66638;50.050;21.124;2023-02-28T16:49:10;21.30;;;11.40;;
77524;SDS011;66638;50.050;21.124;2023-02-28T16:51:58;24.60;;;12.10;;
77524;SDS011;66638;50.050;21.124;2023-02-28T16:54:46;25.60;;;13.60;;
77524;SDS011;66638;50.050;21.124;2023-02-28T17:00:20;16.10;;;9.60;;
77524;SDS011;66638;50.050;21.124;2023-02-28T17:03:11;16.90;;;9.50;;
77524;SDS011;66638;50.050;21.124;2023-02-28T17:06:15;32.20;;;16.90;;
77524;SDS011;66638;50.050;21.124;2023-02-28T17:09:14;18.90;;;11.70;;
77524;SDS011;66638;50.050;21.124;2023-02-28T17:12:04;17.40;;;9.80;;
77524;SDS011;66638;50.050;21.124;2023-02-28T17:14:51;14.10;;;8.50;;
77524;SDS011;66638;50.050;21.124;2023-02-28T17:17:39;16.70;;;9.40;;
77524;SDS011;66638;50.050;21.124;2023-02-28T17:20:26;17.20;;;8.70;;
77524;SDS011;66638;50.050;21.124;2023-02-28T17:23:14;17.50;;;8.80;;
77524;SDS011;66638;50.050;21.124;2023-02-28T17:26:01;21.40;;;10.50;;
77524;SDS011;66638;50.050;21.124;2023-02-28T17:28:52;17.50;;;9.20;;
77524;SDS011;66638;50.050;21.124;2023-02-28T17:31:42;15.00;;;8.80;;
77524;SDS011;66638;50.050;21.124;2023-02-28T17:37:17;24.10;;;13.00;;
77524;SDS011;66638;50.050;21.124;2023-02-28T17:42:52;22.30;;;12.10;;
77524;SDS011;66638;50.050;21.124;2023-02-28T17:45:39;26.50;;;13.50;;
77524;SDS011;66638;50.050;21.124;2023-02-28T17:51:14;20.30;;;11.20;;
77524;SDS011;66638;50.050;21.124;2023-02-28T17:54:02;33.10;;;16.40;;
77524;SDS011;66638;50.050;21.124;2023-02-28T17:56:49;53.50;;;24.10;;
77524;SDS011;66638;50.050;21.124;2023-02-28T18:02:24;50.00;;;22.00;;
77524;SDS011;66638;50.050;21.124;2023-02-28T18:05:13;46.20;;;20.00;;
77524;SDS011;66638;50.050;21.124;2023-02-28T18:08:01;45.30;;;20.30;;
77524;SDS011;66638;50.050;21.124;2023-02-28T18:13:35;28.50;;;13.70;;
77524;SDS011;66638;50.050;21.124;2023-02-28T18:19:10;33.30;;;15.50;;
77524;SDS011;66638;50.050;21.124;2023-02-28T18:22:04;32.10;;;18.10;;
77524;SDS011;66638;50.050;21.124;2023-02-28T18:24:54;29.60;;;15.50;;
77524;SDS011;66638;50.050;21.124;2023-02-28T18:27:41;48.20;;;23.20;;
77524;SDS011;66638;50.050;21.124;2023-02-28T18:30:39;186.20;;;64.10;;
77524;SDS011;66638;50.050;21.124;2023-02-28T18:33:26;126.30;;;47.70;;
77524;SDS011;66638;50.050;21.124;2023-02-28T18:36:13;77.10;;;30.90;;
77524;SDS011;66638;50.050;21.124;2023-02-28T18:39:01;78.40;;;34.80;;
77524;SDS011;66638;50.050;21.124;2023-02-28T18:41:48;72.40;;;32.50;;
77524;SDS011;66638;50.050;21.124;2023-02-28T18:44:36;75.90;;;34.30;;
77524;SDS011;66638;50.050;21.124;2023-02-28T18:47:23;41.00;;;19.90;;
77524;SDS011;66638;50.050;21.124;2023-02-28T18:50:11;27.60;;;14.40;;
77524;SDS011;66638;50.050;21.124;2023-02-28T18:52:59;41.10;;;21.40;;
77524;SDS011;66638;50.050;21.124;2023-02-28T18:55:48;65.20;;;32.10;;
77524;SDS011;66638;50.050;21.124;2023-02-28T18:58:36;59.90;;;25.80;;
77524;SDS011;66638;50.050;21.124;2023-02-28T19:01:24;50.30;;;24.50;;
77524;SDS011;66638;50.050;21.124;2023-02-28T19:04:17;52.40;;;26.00;;
77524;SDS011;66638;50.050;21.124;2023-02-28T19:07:04;57.80;;;26.90;;
77524;SDS011;66638;50.050;21.124;2023-02-28T19:09:52;51.90;;;24.80;;
77524;SDS011;66638;50.050;21.124;2023-02-28T19:12:39;51.00;;;24.00;;
77524;SDS011;66638;50.050;21.124;2023-02-28T19:15:28;49.10;;;24.90;;
77524;SDS011;66638;50.050;21.124;2023-02-28T19:18:16;48.00;;;23.60;;
77524;SDS011;66638;50.050;21.124;2023-02-28T19:21:07;63.20;;;28.60;;
77524;SDS011;66638;50.050;21.124;2023-02-28T19:23:56;69.20;;;33.30;;